Terminal Aerodrome Forecast
Issued by NWS

Home | Current Version | Previous Version | Graphics & Text | Print | Product List | Glossary On
Versions: 1 2 3 4 5 6 7 8 9 10 11 12 13 14 15 16 17 18 19 20 21 22 23 24 25 26 27 28 29 30
686
FTUS43 KABR 201417 AAA
TAFATY
TAF AMD
KATY 201417Z 2014/2112 06012KT 5SM -RA BR FEW008 BKN013 OVC030
     FM210300 35009KT 3SM -RA OVC007
     FM211000 32011KT P6SM OVC007=

USA.gov is the U.S. government's official web portal to all federal, state and local government web resources and services.